sensor_id;sensor_type;location;lat;lon;timestamp;P1;durP1;ratioP1;P2;durP2;ratioP2
52586;SDS011;38480;52.724;6.436;2023-06-14T00:01:48;5.00;;;2.20;;
52586;SDS011;38480;52.724;6.436;2023-06-14T00:04:14;6.93;;;2.53;;
52586;SDS011;38480;52.724;6.436;2023-06-14T00:06:45;12.43;;;2.33;;
52586;SDS011;38480;52.724;6.436;2023-06-14T00:09:12;11.37;;;2.50;;
52586;SDS011;38480;52.724;6.436;2023-06-14T00:11:39;6.47;;;2.20;;
52586;SDS011;38480;52.724;6.436;2023-06-14T00:14:05;8.07;;;1.93;;
52586;SDS011;38480;52.724;6.436;2023-06-14T00:16:31;3.00;;;1.70;;
52586;SDS011;38480;52.724;6.436;2023-06-14T00:19:01;5.03;;;2.30;;
52586;SDS011;38480;52.724;6.436;2023-06-14T00:21:30;10.43;;;2.13;;
52586;SDS011;38480;52.724;6.436;2023-06-14T00:23:57;8.63;;;1.83;;
52586;SDS011;38480;52.724;6.436;2023-06-14T00:26:23;7.43;;;2.20;;
52586;SDS011;38480;52.724;6.436;2023-06-14T00:28:51;3.37;;;2.17;;
52586;SDS011;38480;52.724;6.436;2023-06-14T00:31:17;7.37;;;2.40;;
52586;SDS011;38480;52.724;6.436;2023-06-14T00:33:43;9.13;;;2.00;;
52586;SDS011;38480;52.724;6.436;2023-06-14T00:36:09;9.77;;;2.20;;
52586;SDS011;38480;52.724;6.436;2023-06-14T00:38:35;10.97;;;3.37;;
52586;SDS011;38480;52.724;6.436;2023-06-14T00:41:01;4.53;;;2.50;;
52586;SDS011;38480;52.724;6.436;2023-06-14T00:43:27;4.83;;;2.20;;
52586;SDS011;38480;52.724;6.436;2023-06-14T00:45:53;6.60;;;2.20;;
52586;SDS011;38480;52.724;6.436;2023-06-14T00:48:19;9.33;;;2.80;;
52586;SDS011;38480;52.724;6.436;2023-06-14T00:50:45;5.03;;;2.07;;
52586;SDS011;38480;52.724;6.436;2023-06-14T00:53:14;7.77;;;2.40;;
52586;SDS011;38480;52.724;6.436;2023-06-14T00:55:42;6.27;;;2.60;;
52586;SDS011;38480;52.724;6.436;2023-06-14T00:58:08;7.07;;;2.10;;
52586;SDS011;38480;52.724;6.436;2023-06-14T01:00:35;8.27;;;2.23;;
52586;SDS011;38480;52.724;6.436;2023-06-14T01:03:01;8.57;;;2.27;;
52586;SDS011;38480;52.724;6.436;2023-06-14T01:05:28;9.67;;;3.13;;
52586;SDS011;38480;52.724;6.436;2023-06-14T01:13:28;6.83;;;2.50;;
52586;SDS011;38480;52.724;6.436;2023-06-14T01:15:55;7.07;;;2.30;;
52586;SDS011;38480;52.724;6.436;2023-06-14T01:18:22;6.17;;;2.20;;
52586;SDS011;38480;52.724;6.436;2023-06-14T01:20:49;7.57;;;2.30;;
52586;SDS011;38480;52.724;6.436;2023-06-14T01:23:19;7.87;;;2.10;;
52586;SDS011;38480;52.724;6.436;2023-06-14T01:25:45;6.47;;;2.47;;
52586;SDS011;38480;52.724;6.436;2023-06-14T01:28:12;7.30;;;2.07;;
52586;SDS011;38480;52.724;6.436;2023-06-14T01:30:40;5.87;;;1.80;;
52586;SDS011;38480;52.724;6.436;2023-06-14T01:33:13;13.43;;;3.22;;
52586;SDS011;38480;52.724;6.436;2023-06-14T01:35:43;6.87;;;2.27;;
52586;SDS011;38480;52.724;6.436;2023-06-14T01:38:10;9.43;;;2.37;;
52586;SDS011;38480;52.724;6.436;2023-06-14T01:40:36;9.60;;;2.83;;
52586;SDS011;38480;52.724;6.436;2023-06-14T01:43:03;8.40;;;2.50;;
52586;SDS011;38480;52.724;6.436;2023-06-14T01:45:29;10.60;;;2.70;;
52586;SDS011;38480;52.724;6.436;2023-06-14T01:47:55;8.53;;;2.33;;
52586;SDS011;38480;52.724;6.436;2023-06-14T01:50:21;9.57;;;2.43;;
52586;SDS011;38480;52.724;6.436;2023-06-14T01:52:47;11.37;;;2.93;;
52586;SDS011;38480;52.724;6.436;2023-06-14T01:55:13;8.83;;;2.90;;
52586;SDS011;38480;52.724;6.436;2023-06-14T01:57:40;8.17;;;2.70;;
52586;SDS011;38480;52.724;6.436;2023-06-14T02:00:06;8.10;;;2.77;;
52586;SDS011;38480;52.724;6.436;2023-06-14T02:02:35;10.70;;;2.40;;
52586;SDS011;38480;52.724;6.436;2023-06-14T02:05:01;7.13;;;2.33;;
52586;SDS011;38480;52.724;6.436;2023-06-14T02:07:27;4.27;;;2.60;;
52586;SDS011;38480;52.724;6.436;2023-06-14T02:09:53;7.13;;;2.43;;
52586;SDS011;38480;52.724;6.436;2023-06-14T02:12:20;9.23;;;2.27;;
52586;SDS011;38480;52.724;6.436;2023-06-14T02:14:46;8.97;;;2.63;;
52586;SDS011;38480;52.724;6.436;2023-06-14T02:17:12;5.97;;;2.40;;
52586;SDS011;38480;52.724;6.436;2023-06-14T02:19:38;5.03;;;2.43;;
52586;SDS011;38480;52.724;6.436;2023-06-14T02:22:04;6.47;;;2.27;;
52586;SDS011;38480;52.724;6.436;2023-06-14T02:24:30;6.10;;;3.27;;
52586;SDS011;38480;52.724;6.436;2023-06-14T02:26:56;4.83;;;2.40;;
52586;SDS011;38480;52.724;6.436;2023-06-14T02:29:22;5.73;;;2.70;;
52586;SDS011;38480;52.724;6.436;2023-06-14T02:31:48;5.77;;;2.90;;
52586;SDS011;38480;52.724;6.436;2023-06-14T02:34:14;10.57;;;3.07;;
52586;SDS011;38480;52.724;6.436;2023-06-14T02:36:42;7.30;;;2.80;;
52586;SDS011;38480;52.724;6.436;2023-06-14T02:39:10;12.97;;;2.73;;
52586;SDS011;38480;52.724;6.436;2023-06-14T02:41:36;4.87;;;2.70;;
52586;SDS011;38480;52.724;6.436;2023-06-14T02:44:03;6.77;;;2.17;;
52586;SDS011;38480;52.724;6.436;2023-06-14T02:46:29;5.77;;;2.57;;
52586;SDS011;38480;52.724;6.436;2023-06-14T02:48:55;7.43;;;2.70;;
52586;SDS011;38480;52.724;6.436;2023-06-14T02:51:21;4.63;;;2.50;;
52586;SDS011;38480;52.724;6.436;2023-06-14T02:53:47;5.47;;;2.77;;
52586;SDS011;38480;52.724;6.436;2023-06-14T02:56:13;6.17;;;2.60;;
52586;SDS011;38480;52.724;6.436;2023-06-14T02:58:39;6.50;;;2.77;;
52586;SDS011;38480;52.724;6.436;2023-06-14T03:01:05;6.30;;;3.13;;
52586;SDS011;38480;52.724;6.436;2023-06-14T03:03:33;6.30;;;2.77;;
52586;SDS011;38480;52.724;6.436;2023-06-14T03:05:59;6.27;;;2.60;;
52586;SDS011;38480;52.724;6.436;2023-06-14T03:08:30;6.80;;;2.70;;
52586;SDS011;38480;52.724;6.436;2023-06-14T03:10:58;7.00;;;2.93;;
52586;SDS011;38480;52.724;6.436;2023-06-14T03:13:24;5.97;;;2.67;;
52586;SDS011;38480;52.724;6.436;2023-06-14T03:15:51;13.43;;;3.33;;
52586;SDS011;38480;52.724;6.436;2023-06-14T03:18:17;7.43;;;2.67;;
52586;SDS011;38480;52.724;6.436;2023-06-14T03:20:44;8.37;;;3.20;;
52586;SDS011;38480;52.724;6.436;2023-06-14T03:23:13;7.57;;;2.90;;
52586;SDS011;38480;52.724;6.436;2023-06-14T03:25:39;8.63;;;2.57;;
52586;SDS011;38480;52.724;6.436;2023-06-14T03:28:07;10.23;;;3.33;;
52586;SDS011;38480;52.724;6.436;2023-06-14T03:30:33;6.67;;;2.70;;
52586;SDS011;38480;52.724;6.436;2023-06-14T03:32:59;5.27;;;2.50;;
52586;SDS011;38480;52.724;6.436;2023-06-14T03:35:26;6.37;;;2.70;;
52586;SDS011;38480;52.724;6.436;2023-06-14T03:37:52;8.80;;;2.70;;
52586;SDS011;38480;52.724;6.436;2023-06-14T03:40:18;7.27;;;3.20;;
52586;SDS011;38480;52.724;6.436;2023-06-14T03:42:45;7.57;;;2.90;;
52586;SDS011;38480;52.724;6.436;2023-06-14T03:45:11;7.20;;;2.90;;
52586;SDS011;38480;52.724;6.436;2023-06-14T03:47:37;8.17;;;3.30;;
52586;SDS011;38480;52.724;6.436;2023-06-14T03:50:03;7.43;;;3.17;;
52586;SDS011;38480;52.724;6.436;2023-06-14T03:52:29;8.10;;;3.50;;
52586;SDS011;38480;52.724;6.436;2023-06-14T03:54:56;4.53;;;2.67;;
52586;SDS011;38480;52.724;6.436;2023-06-14T03:57:23;5.47;;;2.90;;
52586;SDS011;38480;52.724;6.436;2023-06-14T03:59:49;7.40;;;3.17;;
52586;SDS011;38480;52.724;6.436;2023-06-14T04:02:16;7.40;;;3.27;;
52586;SDS011;38480;52.724;6.436;2023-06-14T04:04:43;9.17;;;2.57;;
52586;SDS011;38480;52.724;6.436;2023-06-14T04:07:13;5.10;;;2.80;;
52586;SDS011;38480;52.724;6.436;2023-06-14T04:09:39;7.60;;;3.47;;
52586;SDS011;38480;52.724;6.436;2023-06-14T04:12:05;8.80;;;3.40;;
52586;SDS011;38480;52.724;6.436;2023-06-14T04:14:33;4.83;;;2.83;;
52586;SDS011;38480;52.724;6.436;2023-06-14T04:16:59;8.80;;;3.20;;
52586;SDS011;38480;52.724;6.436;2023-06-14T04:19:26;7.13;;;3.23;;
52586;SDS011;38480;52.724;6.436;2023-06-14T04:21:52;6.30;;;3.03;;
52586;SDS011;38480;52.724;6.436;2023-06-14T04:24:18;6.67;;;3.30;;
52586;SDS011;38480;52.724;6.436;2023-06-14T04:26:44;10.03;;;3.33;;
52586;SDS011;38480;52.724;6.436;2023-06-14T04:29:12;8.37;;;3.00;;
52586;SDS011;38480;52.724;6.436;2023-06-14T04:31:42;4.70;;;2.77;;
52586;SDS011;38480;52.724;6.436;2023-06-14T04:34:09;6.53;;;2.93;;
52586;SDS011;38480;52.724;6.436;2023-06-14T04:36:40;6.50;;;2.90;;
52586;SDS011;38480;52.724;6.436;2023-06-14T04:39:15;6.20;;;3.35;;
52586;SDS011;38480;52.724;6.436;2023-06-14T04:41:42;9.20;;;3.40;;
52586;SDS011;38480;52.724;6.436;2023-06-14T04:44:09;5.37;;;2.67;;
52586;SDS011;38480;52.724;6.436;2023-06-14T04:46:35;4.83;;;2.90;;
52586;SDS011;38480;52.724;6.436;2023-06-14T04:49:14;4.83;;;2.70;;
52586;SDS011;38480;52.724;6.436;2023-06-14T04:51:45;8.83;;;3.50;;
52586;SDS011;38480;52.724;6.436;2023-06-14T04:54:12;6.63;;;2.90;;
52586;SDS011;38480;52.724;6.436;2023-06-14T04:56:39;5.20;;;3.03;;
52586;SDS011;38480;52.724;6.436;2023-06-14T04:59:05;8.47;;;3.23;;
52586;SDS011;38480;52.724;6.436;2023-06-14T05:01:31;7.03;;;2.80;;
52586;SDS011;38480;52.724;6.436;2023-06-14T05:03:58;5.87;;;2.70;;
52586;SDS011;38480;52.724;6.436;2023-06-14T05:06:24;9.43;;;3.10;;
52586;SDS011;38480;52.724;6.436;2023-06-14T05:08:52;8.00;;;3.40;;
52586;SDS011;38480;52.724;6.436;2023-06-14T05:11:18;6.63;;;2.90;;
52586;SDS011;38480;52.724;6.436;2023-06-14T05:13:45;10.47;;;3.10;;
52586;SDS011;38480;52.724;6.436;2023-06-14T05:16:11;10.10;;;2.97;;
52586;SDS011;38480;52.724;6.436;2023-06-14T05:18:38;12.00;;;3.60;;
52586;SDS011;38480;52.724;6.436;2023-06-14T05:21:05;6.50;;;3.40;;
52586;SDS011;38480;52.724;6.436;2023-06-14T05:23:31;11.80;;;3.03;;
52586;SDS011;38480;52.724;6.436;2023-06-14T05:25:57;8.90;;;3.40;;
52586;SDS011;38480;52.724;6.436;2023-06-14T05:28:23;5.70;;;3.37;;
52586;SDS011;38480;52.724;6.436;2023-06-14T05:30:50;8.57;;;2.93;;
52586;SDS011;38480;52.724;6.436;2023-06-14T05:33:16;5.40;;;2.57;;
52586;SDS011;38480;52.724;6.436;2023-06-14T05:35:43;5.17;;;2.50;;
52586;SDS011;38480;52.724;6.436;2023-06-14T05:38:09;9.50;;;3.13;;
52586;SDS011;38480;52.724;6.436;2023-06-14T05:40:35;6.27;;;2.70;;
52586;SDS011;38480;52.724;6.436;2023-06-14T05:43:01;6.50;;;2.77;;
52586;SDS011;38480;52.724;6.436;2023-06-14T05:45:27;9.07;;;2.93;;
52586;SDS011;38480;52.724;6.436;2023-06-14T05:47:53;8.27;;;3.10;;
52586;SDS011;38480;52.724;6.436;2023-06-14T05:50:22;8.07;;;2.50;;
52586;SDS011;38480;52.724;6.436;2023-06-14T05:52:48;7.47;;;2.90;;
52586;SDS011;38480;52.724;6.436;2023-06-14T05:55:15;10.50;;;2.80;;
52586;SDS011;38480;52.724;6.436;2023-06-14T05:57:42;7.33;;;2.77;;
52586;SDS011;38480;52.724;6.436;2023-06-14T06:00:08;7.50;;;3.37;;
52586;SDS011;38480;52.724;6.436;2023-06-14T06:02:40;6.50;;;3.30;;
52586;SDS011;38480;52.724;6.436;2023-06-14T06:05:08;6.40;;;2.83;;
52586;SDS011;38480;52.724;6.436;2023-06-14T06:07:34;7.00;;;3.80;;
52586;SDS011;38480;52.724;6.436;2023-06-14T06:10:00;7.20;;;2.83;;
52586;SDS011;38480;52.724;6.436;2023-06-14T06:12:26;6.90;;;3.10;;
52586;SDS011;38480;52.724;6.436;2023-06-14T06:14:52;8.83;;;3.43;;
52586;SDS011;38480;52.724;6.436;2023-06-14T06:17:18;6.60;;;3.10;;
52586;SDS011;38480;52.724;6.436;2023-06-14T06:19:44;7.00;;;2.90;;
52586;SDS011;38480;52.724;6.436;2023-06-14T06:22:11;7.73;;;3.00;;
52586;SDS011;38480;52.724;6.436;2023-06-14T06:24:37;7.43;;;3.10;;
52586;SDS011;38480;52.724;6.436;2023-06-14T06:27:03;5.57;;;2.80;;
52586;SDS011;38480;52.724;6.436;2023-06-14T06:29:29;7.03;;;3.20;;
52586;SDS011;38480;52.724;6.436;2023-06-14T06:31:55;6.07;;;2.93;;
52586;SDS011;38480;52.724;6.436;2023-06-14T06:34:21;5.03;;;2.97;;
52586;SDS011;38480;52.724;6.436;2023-06-14T06:36:47;6.93;;;3.47;;
52586;SDS011;38480;52.724;6.436;2023-06-14T06:39:13;9.10;;;3.00;;
52586;SDS011;38480;52.724;6.436;2023-06-14T06:41:40;6.57;;;2.90;;
52586;SDS011;38480;52.724;6.436;2023-06-14T06:44:06;5.37;;;2.47;;
52586;SDS011;38480;52.724;6.436;2023-06-14T06:46:34;6.73;;;2.53;;
52586;SDS011;38480;52.724;6.436;2023-06-14T06:49:04;5.50;;;2.50;;
52586;SDS011;38480;52.724;6.436;2023-06-14T06:51:31;6.23;;;2.30;;
52586;SDS011;38480;52.724;6.436;2023-06-14T06:53:57;5.67;;;2.03;;
52586;SDS011;38480;52.724;6.436;2023-06-14T06:56:23;4.97;;;1.80;;
52586;SDS011;38480;52.724;6.436;2023-06-14T06:58:49;7.13;;;2.23;;
52586;SDS011;38480;52.724;6.436;2023-06-14T07:01:16;4.67;;;2.13;;
52586;SDS011;38480;52.724;6.436;2023-06-14T07:03:42;5.30;;;2.00;;
52586;SDS011;38480;52.724;6.436;2023-06-14T07:06:08;4.13;;;1.73;;
52586;SDS011;38480;52.724;6.436;2023-06-14T07:08:35;9.43;;;2.60;;
52586;SDS011;38480;52.724;6.436;2023-06-14T07:11:03;5.27;;;1.77;;
52586;SDS011;38480;52.724;6.436;2023-06-14T07:13:30;11.33;;;4.07;;
52586;SDS011;38480;52.724;6.436;2023-06-14T07:15:58;4.70;;;1.90;;
52586;SDS011;38480;52.724;6.436;2023-06-14T07:18:24;5.03;;;2.00;;
52586;SDS011;38480;52.724;6.436;2023-06-14T07:20:50;4.53;;;1.83;;
52586;SDS011;38480;52.724;6.436;2023-06-14T07:23:17;9.70;;;1.90;;
52586;SDS011;38480;52.724;6.436;2023-06-14T07:25:43;12.30;;;2.30;;
52586;SDS011;38480;52.724;6.436;2023-06-14T07:28:09;4.83;;;1.90;;
52586;SDS011;38480;52.724;6.436;2023-06-14T07:30:35;6.97;;;1.97;;
52586;SDS011;38480;52.724;6.436;2023-06-14T07:33:01;6.57;;;2.47;;
52586;SDS011;38480;52.724;6.436;2023-06-14T07:35:27;6.33;;;2.23;;
52586;SDS011;38480;52.724;6.436;2023-06-14T07:37:53;8.30;;;2.23;;
52586;SDS011;38480;52.724;6.436;2023-06-14T07:40:19;7.73;;;2.20;;
52586;SDS011;38480;52.724;6.436;2023-06-14T07:42:45;3.37;;;2.20;;
52586;SDS011;38480;52.724;6.436;2023-06-14T07:45:12;4.03;;;2.00;;
52586;SDS011;38480;52.724;6.436;2023-06-14T07:47:39;6.17;;;2.30;;
52586;SDS011;38480;52.724;6.436;2023-06-14T07:50:05;5.53;;;2.13;;
52586;SDS011;38480;52.724;6.436;2023-06-14T07:52:31;4.80;;;2.13;;
52586;SDS011;38480;52.724;6.436;2023-06-14T07:54:57;4.83;;;2.00;;
52586;SDS011;38480;52.724;6.436;2023-06-14T07:57:23;5.70;;;2.60;;
52586;SDS011;38480;52.724;6.436;2023-06-14T07:59:49;6.80;;;2.20;;
52586;SDS011;38480;52.724;6.436;2023-06-14T08:02:16;5.30;;;1.50;;
52586;SDS011;38480;52.724;6.436;2023-06-14T08:04:42;4.03;;;1.90;;
52586;SDS011;38480;52.724;6.436;2023-06-14T08:07:08;4.67;;;1.70;;
52586;SDS011;38480;52.724;6.436;2023-06-14T08:09:35;3.87;;;2.17;;
52586;SDS011;38480;52.724;6.436;2023-06-14T08:12:04;4.50;;;2.00;;
52586;SDS011;38480;52.724;6.436;2023-06-14T08:14:33;3.53;;;1.70;;
52586;SDS011;38480;52.724;6.436;2023-06-14T08:16:59;5.03;;;1.80;;
52586;SDS011;38480;52.724;6.436;2023-06-14T08:19:25;8.07;;;2.77;;
52586;SDS011;38480;52.724;6.436;2023-06-14T08:21:51;4.05;;;1.85;;
52586;SDS011;38480;52.724;6.436;2023-06-14T08:24:20;3.25;;;1.67;;
52586;SDS011;38480;52.724;6.436;2023-06-14T08:26:49;4.75;;;2.53;;
52586;SDS011;38480;52.724;6.436;2023-06-14T08:29:15;4.57;;;2.10;;
52586;SDS011;38480;52.724;6.436;2023-06-14T08:31:41;4.18;;;2.10;;
52586;SDS011;38480;52.724;6.436;2023-06-14T08:34:07;3.30;;;1.52;;
52586;SDS011;38480;52.724;6.436;2023-06-14T08:36:34;4.05;;;1.67;;
52586;SDS011;38480;52.724;6.436;2023-06-14T08:39:01;3.13;;;1.98;;
52586;SDS011;38480;52.724;6.436;2023-06-14T08:41:27;4.53;;;2.00;;
52586;SDS011;38480;52.724;6.436;2023-06-14T08:43:54;4.03;;;1.77;;
52586;SDS011;38480;52.724;6.436;2023-06-14T08:46:20;3.33;;;1.77;;
52586;SDS011;38480;52.724;6.436;2023-06-14T08:48:50;3.63;;;1.77;;
52586;SDS011;38480;52.724;6.436;2023-06-14T08:51:22;2.88;;;1.73;;
52586;SDS011;38480;52.724;6.436;2023-06-14T08:53:50;2.75;;;1.17;;
52586;SDS011;38480;52.724;6.436;2023-06-14T08:56:17;4.47;;;1.48;;
52586;SDS011;38480;52.724;6.436;2023-06-14T08:58:45;6.35;;;1.80;;
52586;SDS011;38480;52.724;6.436;2023-06-14T09:01:13;4.50;;;1.42;;
52586;SDS011;38480;52.724;6.436;2023-06-14T09:03:41;4.50;;;1.38;;
52586;SDS011;38480;52.724;6.436;2023-06-14T09:06:08;3.67;;;1.30;;
52586;SDS011;38480;52.724;6.436;2023-06-14T09:08:45;6.07;;;1.50;;
52586;SDS011;38480;52.724;6.436;2023-06-14T09:11:12;6.05;;;1.55;;
52586;SDS011;38480;52.724;6.436;2023-06-14T09:13:39;3.03;;;1.60;;
52586;SDS011;38480;52.724;6.436;2023-06-14T09:16:06;4.63;;;1.80;;
52586;SDS011;38480;52.724;6.436;2023-06-14T09:18:39;7.65;;;1.52;;
52586;SDS011;38480;52.724;6.436;2023-06-14T09:21:06;5.30;;;1.40;;
52586;SDS011;38480;52.724;6.436;2023-06-14T09:23:39;5.13;;;1.30;;
52586;SDS011;38480;52.724;6.436;2023-06-14T09:26:16;4.95;;;1.70;;
52586;SDS011;38480;52.724;6.436;2023-06-14T09:28:49;4.03;;;1.52;;
52586;SDS011;38480;52.724;6.436;2023-06-14T09:31:19;3.42;;;1.30;;
52586;SDS011;38480;52.724;6.436;2023-06-14T09:33:45;4.40;;;1.40;;
52586;SDS011;38480;52.724;6.436;2023-06-14T09:36:18;3.38;;;1.50;;
52586;SDS011;38480;52.724;6.436;2023-06-14T09:41:19;3.53;;;1.20;;
52586;SDS011;38480;52.724;6.436;2023-06-14T09:43:46;4.15;;;1.63;;
52586;SDS011;38480;52.724;6.436;2023-06-14T09:46:13;4.10;;;1.40;;
52586;SDS011;38480;52.724;6.436;2023-06-14T09:48:39;3.60;;;1.30;;
52586;SDS011;38480;52.724;6.436;2023-06-14T09:51:09;9.73;;;1.67;;
52586;SDS011;38480;52.724;6.436;2023-06-14T09:53:36;4.32;;;1.20;;
52586;SDS011;38480;52.724;6.436;2023-06-14T09:56:02;2.60;;;1.42;;
52586;SDS011;38480;52.724;6.436;2023-06-14T09:58:30;2.33;;;0.90;;
52586;SDS011;38480;52.724;6.436;2023-06-14T10:00:56;3.85;;;1.27;;
52586;SDS011;38480;52.724;6.436;2023-06-14T10:03:27;6.18;;;1.40;;
52586;SDS011;38480;52.724;6.436;2023-06-14T10:05:55;2.83;;;1.27;;
52586;SDS011;38480;52.724;6.436;2023-06-14T10:08:27;2.72;;;1.40;;
52586;SDS011;38480;52.724;6.436;2023-06-14T10:10:55;5.07;;;1.60;;
52586;SDS011;38480;52.724;6.436;2023-06-14T10:13:21;4.55;;;2.17;;
52586;SDS011;38480;52.724;6.436;2023-06-14T10:18:43;3.00;;;1.30;;
52586;SDS011;38480;52.724;6.436;2023-06-14T10:23:43;4.65;;;1.30;;
52586;SDS011;38480;52.724;6.436;2023-06-14T10:26:17;2.13;;;1.30;;
52586;SDS011;38480;52.724;6.436;2023-06-14T10:28:43;3.67;;;1.40;;
52586;SDS011;38480;52.724;6.436;2023-06-14T10:31:20;4.10;;;1.20;;
52586;SDS011;38480;52.724;6.436;2023-06-14T10:38:58;4.70;;;1.15;;
52586;SDS011;38480;52.724;6.436;2023-06-14T10:41:26;4.10;;;1.20;;
52586;SDS011;38480;52.724;6.436;2023-06-14T10:44:02;5.43;;;1.33;;
52586;SDS011;38480;52.724;6.436;2023-06-14T10:46:36;2.97;;;1.20;;
52586;SDS011;38480;52.724;6.436;2023-06-14T10:49:02;4.85;;;1.70;;
52586;SDS011;38480;52.724;6.436;2023-06-14T10:51:29;4.57;;;1.40;;
52586;SDS011;38480;52.724;6.436;2023-06-14T10:53:56;5.85;;;1.17;;
52586;SDS011;38480;52.724;6.436;2023-06-14T10:56:30;2.35;;;1.20;;
52586;SDS011;38480;52.724;6.436;2023-06-14T10:58:57;4.75;;;1.40;;
52586;SDS011;38480;52.724;6.436;2023-06-14T11:01:29;6.53;;;1.73;;
52586;SDS011;38480;52.724;6.436;2023-06-14T11:04:00;4.57;;;1.27;;
52586;SDS011;38480;52.724;6.436;2023-06-14T11:06:30;4.53;;;1.38;;
52586;SDS011;38480;52.724;6.436;2023-06-14T11:11:34;6.95;;;1.50;;
52586;SDS011;38480;52.724;6.436;2023-06-14T11:14:01;5.57;;;1.70;;
52586;SDS011;38480;52.724;6.436;2023-06-14T11:16:27;6.30;;;1.50;;
52586;SDS011;38480;52.724;6.436;2023-06-14T11:18:54;4.90;;;1.25;;
52586;SDS011;38480;52.724;6.436;2023-06-14T11:21:20;8.32;;;1.75;;
52586;SDS011;38480;52.724;6.436;2023-06-14T11:23:51;4.40;;;1.30;;
52586;SDS011;38480;52.724;6.436;2023-06-14T11:26:29;4.68;;;1.38;;
52586;SDS011;38480;52.724;6.436;2023-06-14T11:28:56;8.00;;;1.80;;
52586;SDS011;38480;52.724;6.436;2023-06-14T11:31:22;6.60;;;1.45;;
52586;SDS011;38480;52.724;6.436;2023-06-14T11:33:55;3.10;;;1.30;;
52586;SDS011;38480;52.724;6.436;2023-06-14T11:36:27;2.63;;;1.13;;
52586;SDS011;38480;52.724;6.436;2023-06-14T11:39:01;4.15;;;1.50;;
52586;SDS011;38480;52.724;6.436;2023-06-14T11:41:41;6.30;;;1.42;;
52586;SDS011;38480;52.724;6.436;2023-06-14T11:44:08;4.43;;;1.23;;
52586;SDS011;38480;52.724;6.436;2023-06-14T11:46:34;3.25;;;1.58;;
52586;SDS011;38480;52.724;6.436;2023-06-14T11:49:00;2.47;;;1.48;;
52586;SDS011;38480;52.724;6.436;2023-06-14T11:51:29;4.97;;;1.23;;
52586;SDS011;38480;52.724;6.436;2023-06-14T11:53:55;4.00;;;1.50;;
52586;SDS011;38480;52.724;6.436;2023-06-14T11:56:21;4.78;;;1.50;;
52586;SDS011;38480;52.724;6.436;2023-06-14T11:58:47;2.72;;;1.20;;
52586;SDS011;38480;52.724;6.436;2023-06-14T12:01:16;3.35;;;1.38;;
52586;SDS011;38480;52.724;6.436;2023-06-14T12:03:49;2.75;;;1.30;;
52586;SDS011;38480;52.724;6.436;2023-06-14T12:06:15;6.25;;;1.90;;
52586;SDS011;38480;52.724;6.436;2023-06-14T12:08:43;4.50;;;1.38;;
52586;SDS011;38480;52.724;6.436;2023-06-14T12:11:11;4.30;;;1.77;;
52586;SDS011;38480;52.724;6.436;2023-06-14T12:13:40;2.35;;;1.40;;
52586;SDS011;38480;52.724;6.436;2023-06-14T12:16:09;3.45;;;1.15;;
52586;SDS011;38480;52.724;6.436;2023-06-14T12:18:36;3.85;;;1.35;;
52586;SDS011;38480;52.724;6.436;2023-06-14T12:21:05;4.75;;;1.35;;
52586;SDS011;38480;52.724;6.436;2023-06-14T12:23:47;4.40;;;1.40;;
52586;SDS011;38480;52.724;6.436;2023-06-14T12:26:17;8.07;;;1.30;;
52586;SDS011;38480;52.724;6.436;2023-06-14T12:28:47;4.60;;;1.25;;
52586;SDS011;38480;52.724;6.436;2023-06-14T12:31:13;3.65;;;1.60;;
52586;SDS011;38480;52.724;6.436;2023-06-14T12:33:40;5.97;;;1.38;;
52586;SDS011;38480;52.724;6.436;2023-06-14T12:36:06;6.20;;;1.40;;
52586;SDS011;38480;52.724;6.436;2023-06-14T12:38:33;6.18;;;1.60;;
52586;SDS011;38480;52.724;6.436;2023-06-14T12:40:59;4.97;;;1.33;;
52586;SDS011;38480;52.724;6.436;2023-06-14T12:43:25;5.80;;;1.20;;
52586;SDS011;38480;52.724;6.436;2023-06-14T12:45:51;5.65;;;1.63;;
52586;SDS011;38480;52.724;6.436;2023-06-14T12:48:17;2.88;;;1.50;;
52586;SDS011;38480;52.724;6.436;2023-06-14T12:50:43;4.57;;;1.35;;
52586;SDS011;38480;52.724;6.436;2023-06-14T12:53:09;3.38;;;1.60;;
52586;SDS011;38480;52.724;6.436;2023-06-14T12:55:36;2.92;;;1.17;;
52586;SDS011;38480;52.724;6.436;2023-06-14T12:58:02;2.83;;;1.40;;
52586;SDS011;38480;52.724;6.436;2023-06-14T13:00:28;2.33;;;1.35;;
52586;SDS011;38480;52.724;6.436;2023-06-14T13:02:55;6.20;;;1.88;;
52586;SDS011;38480;52.724;6.436;2023-06-14T13:05:22;2.10;;;1.17;;
52586;SDS011;38480;52.724;6.436;2023-06-14T13:07:48;3.33;;;1.30;;
52586;SDS011;38480;52.724;6.436;2023-06-14T13:10:14;2.85;;;1.48;;
52586;SDS011;38480;52.724;6.436;2023-06-14T13:12:40;3.95;;;1.40;;
52586;SDS011;38480;52.724;6.436;2023-06-14T13:15:06;3.05;;;1.45;;
52586;SDS011;38480;52.724;6.436;2023-06-14T13:17:33;5.50;;;1.55;;
52586;SDS011;38480;52.724;6.436;2023-06-14T13:20:03;5.60;;;1.45;;
52586;SDS011;38480;52.724;6.436;2023-06-14T13:22:29;2.10;;;1.20;;
52586;SDS011;38480;52.724;6.436;2023-06-14T13:24:55;3.72;;;1.33;;
52586;SDS011;38480;52.724;6.436;2023-06-14T13:27:21;3.65;;;1.45;;
52586;SDS011;38480;52.724;6.436;2023-06-14T13:29:49;7.65;;;1.77;;
52586;SDS011;38480;52.724;6.436;2023-06-14T13:32:15;2.53;;;1.45;;
52586;SDS011;38480;52.724;6.436;2023-06-14T13:34:41;2.83;;;1.30;;
52586;SDS011;38480;52.724;6.436;2023-06-14T13:37:07;4.95;;;1.20;;
52586;SDS011;38480;52.724;6.436;2023-06-14T13:39:33;4.55;;;1.25;;
52586;SDS011;38480;52.724;6.436;2023-06-14T13:42:02;4.28;;;1.30;;
52586;SDS011;38480;52.724;6.436;2023-06-14T13:44:28;4.18;;;2.50;;
52586;SDS011;38480;52.724;6.436;2023-06-14T13:46:54;3.72;;;1.20;;
52586;SDS011;38480;52.724;6.436;2023-06-14T13:49:20;5.65;;;1.58;;
52586;SDS011;38480;52.724;6.436;2023-06-14T13:51:46;3.95;;;1.52;;
52586;SDS011;38480;52.724;6.436;2023-06-14T13:54:13;2.70;;;1.23;;
52586;SDS011;38480;52.724;6.436;2023-06-14T13:56:40;3.38;;;1.30;;
52586;SDS011;38480;52.724;6.436;2023-06-14T13:59:06;3.58;;;1.33;;
52586;SDS011;38480;52.724;6.436;2023-06-14T14:01:32;3.38;;;1.27;;
52586;SDS011;38480;52.724;6.436;2023-06-14T14:03:58;3.40;;;1.20;;
52586;SDS011;38480;52.724;6.436;2023-06-14T14:06:25;4.00;;;1.45;;
52586;SDS011;38480;52.724;6.436;2023-06-14T14:08:51;4.97;;;1.40;;
52586;SDS011;38480;52.724;6.436;2023-06-14T14:11:18;3.13;;;1.30;;
52586;SDS011;38480;52.724;6.436;2023-06-14T14:13:45;4.53;;;1.30;;
52586;SDS011;38480;52.724;6.436;2023-06-14T14:16:12;5.47;;;1.70;;
52586;SDS011;38480;52.724;6.436;2023-06-14T14:18:38;4.70;;;1.67;;
52586;SDS011;38480;52.724;6.436;2023-06-14T14:21:05;4.07;;;1.20;;
52586;SDS011;38480;52.724;6.436;2023-06-14T14:23:31;2.47;;;1.20;;
52586;SDS011;38480;52.724;6.436;2023-06-14T14:25:57;2.50;;;1.40;;
52586;SDS011;38480;52.724;6.436;2023-06-14T14:28:23;3.67;;;1.10;;
52586;SDS011;38480;52.724;6.436;2023-06-14T14:30:49;5.47;;;1.45;;
52586;SDS011;38480;52.724;6.436;2023-06-14T14:33:15;2.38;;;1.30;;
52586;SDS011;38480;52.724;6.436;2023-06-14T14:35:43;4.63;;;1.42;;
52586;SDS011;38480;52.724;6.436;2023-06-14T14:38:11;3.15;;;1.60;;
52586;SDS011;38480;52.724;6.436;2023-06-14T14:40:37;5.50;;;1.10;;
52586;SDS011;38480;52.724;6.436;2023-06-14T14:43:03;3.67;;;1.30;;
52586;SDS011;38480;52.724;6.436;2023-06-14T14:45:30;2.08;;;1.15;;
52586;SDS011;38480;52.724;6.436;2023-06-14T14:47:56;2.33;;;1.40;;
52586;SDS011;38480;52.724;6.436;2023-06-14T14:50:22;2.70;;;1.27;;
52586;SDS011;38480;52.724;6.436;2023-06-14T14:52:51;2.63;;;1.35;;
52586;SDS011;38480;52.724;6.436;2023-06-14T14:55:17;4.53;;;1.52;;
52586;SDS011;38480;52.724;6.436;2023-06-14T14:57:43;4.47;;;1.10;;
52586;SDS011;38480;52.724;6.436;2023-06-14T15:00:09;3.35;;;1.52;;
52586;SDS011;38480;52.724;6.436;2023-06-14T15:02:36;3.05;;;1.35;;
52586;SDS011;38480;52.724;6.436;2023-06-14T15:05:02;2.70;;;1.40;;
52586;SDS011;38480;52.724;6.436;2023-06-14T15:07:28;2.55;;;1.40;;
52586;SDS011;38480;52.724;6.436;2023-06-14T15:09:54;3.13;;;1.27;;